Time;durP1;ratioP1;P1;durP2;ratioP2;P2;SDS_P1;SDS_P2;PMS_P1;PMS_P2;Temp;Humidity;BMP_temperature;BMP_pressure;BME280_temperature;BME280_humidity;BME280_pressure;Samples;Min_cycle;Max_cycle;Signal;HPM_P1;HPM_P2
2024/01/26 00:01:51;;;;;;;9.15;6.43;;;9.20;99.90;;;;;;4968394;28;20027;-79
2024/01/26 00:04:16;;;;;;;14.50;8.70;;;9.20;99.90;;;;;;4966071;28;20031;-79
2024/01/26 00:06:42;;;;;;;14.15;9.85;;;9.30;99.90;;;;;;4951997;28;20027;-80
2024/01/26 00:09:11;;;;;;;16.40;10.27;;;9.30;99.90;;;;;;4980843;28;20041;-80
2024/01/26 00:11:37;;;;;;;15.43;11.50;;;9.30;99.90;;;;;;4964596;28;20379;-78
2024/01/26 00:14:03;;;;;;;13.95;9.15;;;9.30;99.90;;;;;;4979113;28;20039;-80
2024/01/26 00:16:28;;;;;;;8.20;4.30;;;9.30;99.90;;;;;;4965605;28;20033;-78
2024/01/26 00:18:54;;;;;;;16.55;10.60;;;9.20;99.90;;;;;;4950090;28;20609;-80
2024/01/26 00:21:19;;;;;;;9.15;4.78;;;9.30;99.90;;;;;;4949193;28;20406;-80
2024/01/26 00:23:45;;;;;;;13.95;7.78;;;9.30;99.90;;;;;;4951240;28;20214;-79
2024/01/26 00:26:14;;;;;;;13.77;9.45;;;9.30;99.90;;;;;;4963664;28;20046;-80
2024/01/26 00:28:39;;;;;;;17.30;10.10;;;9.30;99.90;;;;;;4965360;28;20046;-80
2024/01/26 00:31:05;;;;;;;17.30;10.93;;;9.30;99.90;;;;;;4980045;28;20057;-80
2024/01/26 00:33:31;;;;;;;12.75;8.73;;;9.30;99.90;;;;;;4966191;28;20034;-80
2024/01/26 00:35:56;;;;;;;19.23;12.95;;;9.30;99.90;;;;;;4940849;28;20677;-80
2024/01/26 00:38:22;;;;;;;15.50;10.15;;;9.30;99.90;;;;;;4961548;28;20031;-80
2024/01/26 00:40:47;;;;;;;17.65;11.52;;;9.40;99.90;;;;;;4959247;28;20038;-80
2024/01/26 00:43:13;;;;;;;16.15;10.70;;;9.40;99.90;;;;;;4965428;28;20042;-80
2024/01/26 00:45:39;;;;;;;18.80;11.25;;;9.40;99.90;;;;;;4964868;28;20039;-80
2024/01/26 00:48:05;;;;;;;11.75;7.65;;;9.40;99.90;;;;;;4941701;28;20049;-79
2024/01/26 00:50:30;;;;;;;17.60;10.95;;;9.40;99.90;;;;;;4973671;28;20490;-80
2024/01/26 00:52:57;;;;;;;17.90;11.35;;;9.40;99.90;;;;;;4949341;28;20034;-80
2024/01/26 00:55:23;;;;;;;16.40;10.40;;;9.40;99.90;;;;;;4947809;28;20673;-80
2024/01/26 00:57:48;;;;;;;14.32;10.52;;;9.40;99.90;;;;;;4963031;28;20095;-80
2024/01/26 01:00:14;;;;;;;15.75;11.18;;;9.50;99.90;;;;;;4950877;28;20041;-80
2024/01/26 01:02:40;;;;;;;11.20;6.18;;;9.40;99.90;;;;;;4964997;28;20503;-80
2024/01/26 01:05:06;;;;;;;17.95;11.73;;;9.40;99.90;;;;;;4949227;28;20043;-80
2024/01/26 01:07:32;;;;;;;17.45;12.30;;;9.40;99.90;;;;;;4965999;28;20026;-80
2024/01/26 01:09:58;;;;;;;16.00;10.02;;;9.40;99.90;;;;;;4949980;28;20510;-80
2024/01/26 01:12:23;;;;;;;16.75;10.18;;;9.40;99.90;;;;;;4950126;28;20121;-80
2024/01/26 01:14:49;;;;;;;15.50;8.93;;;9.40;99.90;;;;;;4960904;28;20031;-80
2024/01/26 01:17:14;;;;;;;19.40;13.10;;;9.60;99.90;;;;;;4947155;28;20073;-79
2024/01/26 01:19:40;;;;;;;18.75;12.75;;;9.50;99.90;;;;;;4950307;28;20022;-79
2024/01/26 01:22:05;;;;;;;13.52;7.80;;;9.50;99.90;;;;;;4947848;28;20034;-79
2024/01/26 01:24:31;;;;;;;18.67;13.32;;;9.50;99.90;;;;;;4951079;28;20474;-79
2024/01/26 01:26:57;;;;;;;25.38;16.83;;;9.50;99.90;;;;;;4948660;28;20211;-80
2024/01/26 01:29:22;;;;;;;18.13;8.77;;;9.50;99.90;;;;;;4950400;28;20041;-79
2024/01/26 01:31:48;;;;;;;18.55;13.20;;;9.50;99.90;;;;;;4961370;28;20499;-79
2024/01/26 01:34:13;;;;;;;21.80;15.30;;;9.50;99.90;;;;;;4949773;28;20034;-79
2024/01/26 01:36:39;;;;;;;23.15;15.52;;;9.50;99.90;;;;;;4949880;28;20394;-79
2024/01/26 01:39:05;;;;;;;13.20;8.35;;;9.50;99.90;;;;;;4979003;28;20433;-79
2024/01/26 01:41:31;;;;;;;20.25;12.35;;;9.50;99.90;;;;;;4963895;28;20510;-79
2024/01/26 01:43:57;;;;;;;11.75;7.18;;;9.50;99.90;;;;;;4964253;28;20030;-80
2024/01/26 01:46:22;;;;;;;14.77;8.88;;;9.50;99.90;;;;;;4959890;28;20034;-80
2024/01/26 01:48:49;;;;;;;17.33;9.85;;;9.50;99.90;;;;;;4976719;28;20049;-79
2024/01/26 01:51:15;;;;;;;21.70;14.10;;;9.50;99.90;;;;;;4965758;28;20124;-80
2024/01/26 01:53:40;;;;;;;23.23;15.40;;;9.50;99.90;;;;;;4948716;28;20073;-79
2024/01/26 01:56:09;;;;;;;11.75;7.40;;;9.40;99.90;;;;;;4961318;28;20046;-80
2024/01/26 01:58:35;;;;;;;19.42;13.63;;;9.40;99.90;;;;;;4964739;28;20034;-79
2024/01/26 02:01:00;;;;;;;18.05;9.23;;;9.50;99.90;;;;;;4948544;28;20026;-78
2024/01/26 02:03:28;;;;;;;19.73;13.85;;;9.50;99.90;;;;;;4966753;28;20023;-77
2024/01/26 02:05:53;;;;;;;21.83;13.27;;;9.50;99.90;;;;;;4950632;28;20495;-78
2024/01/26 02:08:21;;;;;;;16.77;11.95;;;9.50;99.90;;;;;;4966065;28;20216;-78
2024/01/26 02:10:46;;;;;;;17.50;9.27;;;9.50;99.90;;;;;;4964495;28;20026;-77
2024/01/26 02:13:12;;;;;;;15.50;9.57;;;9.50;99.90;;;;;;4977972;28;20038;-78
2024/01/26 02:15:37;;;;;;;21.63;15.23;;;9.50;99.90;;;;;;4969609;28;20035;-78
2024/01/26 02:18:04;;;;;;;19.73;8.77;;;9.50;99.90;;;;;;4966619;28;20037;-77
2024/01/26 02:20:29;;;;;;;21.75;12.60;;;9.60;99.90;;;;;;4967935;28;20438;-77
2024/01/26 02:22:55;;;;;;;18.00;11.68;;;9.50;99.90;;;;;;4966190;28;20038;-78
2024/01/26 02:25:20;;;;;;;12.93;8.55;;;9.50;99.90;;;;;;4962708;28;20031;-78
2024/01/26 02:27:46;;;;;;;18.85;11.18;;;9.50;99.90;;;;;;4961952;28;20046;-78
2024/01/26 02:30:12;;;;;;;16.48;10.00;;;9.60;99.90;;;;;;4967020;28;20047;-78
2024/01/26 02:32:37;;;;;;;10.32;6.10;;;9.60;99.90;;;;;;4980557;28;20116;-78
2024/01/26 02:35:03;;;;;;;19.08;10.18;;;9.60;99.90;;;;;;4951035;28;20113;-78
2024/01/26 02:37:29;;;;;;;15.40;10.27;;;9.60;99.90;;;;;;4981278;28;20030;-78
2024/01/26 02:39:55;;;;;;;18.35;10.60;;;9.60;99.90;;;;;;4967181;28;20038;-78
2024/01/26 02:42:21;;;;;;;13.38;9.48;;;9.60;99.90;;;;;;4969256;28;20695;-79
2024/01/26 02:44:46;;;;;;;14.07;9.05;;;9.60;99.90;;;;;;4955584;28;20034;-78
2024/01/26 02:47:12;;;;;;;10.32;6.32;;;9.60;99.90;;;;;;4951288;28;20034;-78
2024/01/26 02:49:41;;;;;;;16.60;11.30;;;9.60;99.90;;;;;;4944144;28;20435;-78
2024/01/26 02:52:06;;;;;;;11.23;7.50;;;9.60;99.90;;;;;;4951345;28;20039;-78
2024/01/26 02:54:33;;;;;;;10.63;7.03;;;9.60;99.90;;;;;;4950799;28;20042;-78
2024/01/26 02:56:58;;;;;;;11.38;6.43;;;9.60;99.90;;;;;;4949840;28;20033;-77
2024/01/26 02:59:24;;;;;;;17.88;11.05;;;9.60;99.90;;;;;;4951654;28;20461;-78
2024/01/26 03:01:49;;;;;;;17.55;10.73;;;9.60;99.90;;;;;;4968392;28;20073;-78
2024/01/26 03:04:15;;;;;;;12.63;8.68;;;9.60;99.90;;;;;;4981272;28;20073;-78
2024/01/26 03:06:41;;;;;;;7.95;5.30;;;9.60;99.90;;;;;;4962439;28;20042;-78
2024/01/26 03:09:07;;;;;;;14.50;10.07;;;9.70;99.90;;;;;;4965396;28;20066;-78
2024/01/26 03:11:37;;;;;;;13.25;9.43;;;9.60;99.90;;;;;;4961668;28;20045;-78
2024/01/26 03:14:03;;;;;;;6.80;4.95;;;9.70;99.90;;;;;;4965039;28;20121;-78
2024/01/26 03:16:29;;;;;;;11.70;7.45;;;9.70;99.90;;;;;;4964637;28;20137;-78
2024/01/26 03:18:54;;;;;;;10.88;7.20;;;9.70;99.90;;;;;;4950527;28;20041;-78
2024/01/26 03:21:20;;;;;;;13.80;8.93;;;9.60;99.90;;;;;;4949746;28;20114;-78
2024/01/26 03:23:45;;;;;;;10.65;7.50;;;9.60;99.90;;;;;;4980055;28;20089;-79
2024/01/26 03:26:11;;;;;;;12.55;7.80;;;9.60;99.90;;;;;;4978798;28;20033;-79
2024/01/26 03:28:36;;;;;;;12.32;6.78;;;9.60;99.90;;;;;;4949729;28;20086;-79
2024/01/26 03:31:02;;;;;;;16.58;8.68;;;9.60;99.90;;;;;;4980767;28;20041;-79
2024/01/26 03:33:27;;;;;;;11.63;5.63;;;9.60;99.90;;;;;;4983821;28;20104;-79
2024/01/26 03:35:53;;;;;;;12.02;6.95;;;9.60;99.90;;;;;;4962329;28;20085;-79
2024/01/26 03:38:18;;;;;;;13.27;8.45;;;9.60;99.90;;;;;;4963737;28;20027;-79
2024/01/26 03:40:44;;;;;;;16.83;9.20;;;9.60;99.90;;;;;;4967464;28;20073;-79
2024/01/26 03:43:09;;;;;;;13.63;8.95;;;9.60;99.90;;;;;;4963871;28;20026;-79
2024/01/26 03:45:36;;;;;;;12.63;8.27;;;9.70;99.90;;;;;;4978030;28;20026;-79
2024/01/26 03:48:01;;;;;;;12.23;8.63;;;9.60;99.90;;;;;;4963799;28;20118;-78
2024/01/26 03:50:27;;;;;;;12.40;8.45;;;9.70;99.90;;;;;;4959411;28;20469;-79
2024/01/26 03:52:53;;;;;;;13.98;8.63;;;9.70;99.90;;;;;;4954663;28;20030;-79
2024/01/26 03:55:18;;;;;;;13.68;8.57;;;9.70;99.90;;;;;;4961616;28;20033;-78
2024/01/26 03:57:44;;;;;;;12.35;8.85;;;9.70;99.90;;;;;;4952875;28;20059;-79
2024/01/26 04:00:10;;;;;;;13.10;7.18;;;9.70;99.90;;;;;;4969419;28;20038;-78
2024/01/26 04:02:35;;;;;;;13.02;8.60;;;9.70;99.90;;;;;;4941774;28;20851;-79
2024/01/26 04:05:02;;;;;;;12.57;8.57;;;9.70;99.90;;;;;;4965580;28;20026;-78
2024/01/26 04:07:27;;;;;;;12.35;8.40;;;9.70;99.90;;;;;;4967174;28;20549;-79
2024/01/26 04:09:53;;;;;;;13.48;9.00;;;9.70;99.90;;;;;;4967351;28;20045;-79
2024/01/26 04:12:19;;;;;;;12.18;9.15;;;9.70;99.90;;;;;;4963630;28;20058;-79
2024/01/26 04:14:44;;;;;;;13.82;8.77;;;9.70;99.90;;;;;;4980404;28;20482;-79
2024/01/26 04:17:10;;;;;;;12.95;9.95;;;9.70;99.90;;;;;;4958394;28;20078;-79
2024/01/26 04:19:35;;;;;;;15.38;9.35;;;9.60;99.90;;;;;;4950986;28;20495;-78
2024/01/26 04:22:01;;;;;;;12.50;9.38;;;9.70;99.90;;;;;;4947350;28;20596;-78
2024/01/26 04:24:26;;;;;;;14.52;8.82;;;9.60;99.90;;;;;;4948814;28;20035;-79
2024/01/26 04:26:52;;;;;;;13.20;9.18;;;9.70;99.90;;;;;;4947888;28;20054;-79
2024/01/26 04:29:18;;;;;;;11.82;7.55;;;9.60;99.90;;;;;;4952040;28;20037;-79
2024/01/26 04:31:44;;;;;;;10.85;7.50;;;9.70;99.90;;;;;;4950923;28;20046;-79
2024/01/26 04:34:09;;;;;;;9.35;7.20;;;9.70;99.90;;;;;;4967640;28;20034;-79
2024/01/26 04:36:35;;;;;;;7.85;3.95;;;9.70;99.90;;;;;;4949769;28;20042;-79
2024/01/26 04:39:02;;;;;;;11.20;8.13;;;9.70;99.90;;;;;;4962071;28;20070;-79
2024/01/26 04:41:28;;;;;;;13.27;7.07;;;9.70;99.90;;;;;;4961551;28;20164;-79
2024/01/26 04:43:55;;;;;;;12.18;6.57;;;9.70;99.90;;;;;;4948401;28;20499;-79
2024/01/26 04:46:20;;;;;;;7.53;5.25;;;9.70;99.90;;;;;;4976825;28;20384;-79
2024/01/26 04:48:46;;;;;;;10.05;6.22;;;9.70;99.90;;;;;;4979832;28;20034;-78
2024/01/26 04:51:11;;;;;;;14.32;7.40;;;9.70;99.90;;;;;;4951292;28;20037;-78
2024/01/26 04:53:37;;;;;;;14.30;6.45;;;9.70;99.90;;;;;;4965953;28;20034;-79
2024/01/26 04:56:03;;;;;;;7.35;5.63;;;9.70;99.90;;;;;;4978455;28;20046;-79
2024/01/26 04:58:28;;;;;;;6.18;3.22;;;9.70;99.90;;;;;;4947551;28;20034;-79
2024/01/26 05:00:54;;;;;;;8.10;4.15;;;9.70;99.90;;;;;;4964992;28;20053;-78
2024/01/26 05:03:19;;;;;;;9.13;5.05;;;9.70;99.90;;;;;;4963040;28;20030;-79
2024/01/26 05:05:45;;;;;;;10.15;6.20;;;9.70;99.90;;;;;;4952745;28;20096;-79
2024/01/26 05:08:11;;;;;;;8.93;4.90;;;9.70;99.90;;;;;;4948821;28;20497;-78
2024/01/26 05:10:36;;;;;;;6.68;3.47;;;9.70;99.90;;;;;;4965315;28;20035;-79
2024/01/26 05:13:02;;;;;;;10.25;6.22;;;9.80;99.90;;;;;;4964199;28;20038;-79
2024/01/26 05:15:27;;;;;;;8.63;5.32;;;9.70;99.90;;;;;;4977744;28;20030;-79
2024/01/26 05:17:53;;;;;;;8.80;5.85;;;9.70;99.90;;;;;;4964657;28;20039;-78
2024/01/26 05:20:18;;;;;;;6.65;3.13;;;9.80;99.90;;;;;;4961830;28;20054;-78
2024/01/26 05:22:44;;;;;;;7.00;4.35;;;9.70;99.90;;;;;;4958435;28;20476;-78
2024/01/26 05:25:10;;;;;;;8.93;5.40;;;9.80;99.90;;;;;;4961240;28;20050;-78
2024/01/26 05:27:35;;;;;;;2.30;1.70;;;9.80;99.90;;;;;;4961875;28;20035;-78
2024/01/26 05:30:01;;;;;;;6.32;3.47;;;9.80;99.90;;;;;;4944255;28;20027;-78
2024/01/26 05:32:26;;;;;;;10.98;4.55;;;9.80;99.90;;;;;;4979056;28;20049;-78
2024/01/26 05:34:52;;;;;;;6.32;2.60;;;9.80;99.90;;;;;;4965427;28;20089;-78
2024/01/26 05:37:18;;;;;;;9.43;2.95;;;9.80;99.90;;;;;;4966993;28;20046;-78
2024/01/26 05:39:43;;;;;;;3.10;2.45;;;9.90;99.90;;;;;;4953606;28;20023;-78
2024/01/26 05:42:09;;;;;;;7.90;3.42;;;9.80;99.90;;;;;;4967725;28;20057;-79
2024/01/26 05:44:35;;;;;;;5.53;3.90;;;9.90;99.90;;;;;;4985301;28;20117;-79
2024/01/26 05:47:06;;;;;;;5.30;3.03;;;9.90;99.90;;;;;;4980848;28;20116;-79
2024/01/26 05:49:33;;;;;;;5.28;3.47;;;9.90;99.90;;;;;;4965618;28;20034;-79
2024/01/26 05:51:59;;;;;;;7.70;2.38;;;9.90;99.90;;;;;;4970049;28;20149;-79
2024/01/26 05:54:32;;;;;;;4.10;2.10;;;9.80;99.90;;;;;;4952954;28;20030;-79
2024/01/26 05:56:58;;;;;;;8.55;4.57;;;9.80;99.90;;;;;;4954565;28;20046;-78
2024/01/26 05:59:23;;;;;;;3.90;2.75;;;9.80;99.90;;;;;;4965102;28;20034;-78
2024/01/26 06:01:49;;;;;;;2.58;1.73;;;9.80;99.90;;;;;;4937683;28;20517;-78
2024/01/26 06:04:15;;;;;;;5.32;2.58;;;9.80;99.90;;;;;;4938943;28;20047;-79
2024/01/26 06:06:40;;;;;;;2.88;1.70;;;9.90;99.90;;;;;;4965135;28;20130;-78
2024/01/26 06:09:07;;;;;;;5.68;2.22;;;9.80;99.90;;;;;;4965024;28;20066;-79
2024/01/26 06:11:35;;;;;;;6.28;3.58;;;9.90;99.90;;;;;;4957779;28;20073;-79
2024/01/26 06:14:01;;;;;;;7.60;3.28;;;9.90;99.90;;;;;;4983057;28;20495;-79
2024/01/26 06:16:27;;;;;;;4.05;2.53;;;9.80;99.90;;;;;;4982054;28;20034;-79
2024/01/26 06:18:53;;;;;;;3.70;2.20;;;9.90;99.90;;;;;;4954022;28;20042;-79
2024/01/26 06:21:19;;;;;;;5.82;3.08;;;9.90;99.90;;;;;;4968094;28;20041;-78
2024/01/26 06:23:45;;;;;;;3.78;2.50;;;9.90;99.90;;;;;;4954624;28;20038;-80
2024/01/26 06:26:10;;;;;;;5.15;2.63;;;9.90;99.90;;;;;;4954572;28;20034;-79
2024/01/26 06:28:36;;;;;;;5.07;3.58;;;9.80;99.90;;;;;;4980597;28;20093;-79
2024/01/26 06:31:01;;;;;;;6.28;2.20;;;9.80;99.90;;;;;;4951404;28;20038;-79
2024/01/26 06:33:27;;;;;;;3.72;2.72;;;9.70;99.90;;;;;;4985349;28;20030;-79
2024/01/26 06:35:52;;;;;;;3.47;2.33;;;9.80;99.90;;;;;;4984414;28;20376;-79
2024/01/26 06:38:18;;;;;;;1.73;1.20;;;9.90;99.90;;;;;;4983465;28;20549;-79
2024/01/26 06:40:44;;;;;;;3.95;2.45;;;9.80;99.90;;;;;;4981514;28;20089;-79
2024/01/26 06:43:10;;;;;;;5.30;3.22;;;9.90;99.90;;;;;;4969476;28;20034;-79
2024/01/26 06:45:36;;;;;;;4.85;1.40;;;9.90;99.90;;;;;;4983030;28;20027;-79
2024/01/26 06:48:01;;;;;;;2.65;1.65;;;9.90;99.90;;;;;;4965712;28;20036;-79
2024/01/26 06:50:27;;;;;;;2.95;2.10;;;9.90;99.90;;;;;;4969170;28;20041;-79
2024/01/26 06:52:53;;;;;;;2.10;1.05;;;9.90;99.90;;;;;;4950090;28;20107;-79
2024/01/26 06:55:18;;;;;;;2.53;1.55;;;9.90;99.90;;;;;;4976093;28;20038;-79
2024/01/26 06:57:44;;;;;;;4.50;1.90;;;9.90;99.90;;;;;;4964712;28;20100;-79
2024/01/26 07:00:10;;;;;;;2.15;1.35;;;9.90;99.90;;;;;;4965952;28;20026;-78
2024/01/26 07:02:35;;;;;;;2.83;1.55;;;9.90;99.90;;;;;;4976328;28;20057;-79
2024/01/26 07:05:01;;;;;;;2.70;1.40;;;10.00;99.90;;;;;;4981626;28;20051;-79
2024/01/26 07:07:26;;;;;;;1.98;1.58;;;10.00;99.90;;;;;;4953044;28;20049;-79
2024/01/26 07:09:52;;;;;;;1.92;1.63;;;10.00;99.90;;;;;;4981978;28;20042;-79
2024/01/26 07:12:17;;;;;;;1.85;1.40;;;9.90;99.90;;;;;;4982578;28;20454;-79
2024/01/26 07:14:43;;;;;;;4.38;1.35;;;9.90;99.90;;;;;;4977822;28;20491;-79
2024/01/26 07:17:12;;;;;;;4.22;1.25;;;9.90;99.90;;;;;;4976395;28;20111;-79
2024/01/26 07:19:37;;;;;;;1.42;1.30;;;9.90;99.90;;;;;;4984857;28;20109;-79
2024/01/26 07:22:03;;;;;;;1.50;0.95;;;9.90;99.90;;;;;;4964976;28;20126;-79
2024/01/26 07:24:28;;;;;;;1.02;0.75;;;9.90;99.90;;;;;;4985210;28;20041;-79
2024/01/26 07:26:54;;;;;;;1.75;1.00;;;9.90;99.90;;;;;;4966522;28;20058;-79
2024/01/26 07:29:19;;;;;;;1.50;1.25;;;10.00;99.90;;;;;;4976817;28;20065;-79
2024/01/26 07:31:46;;;;;;;1.15;0.57;;;10.00;99.90;;;;;;4966701;28;20042;-79
2024/01/26 07:34:12;;;;;;;2.22;1.40;;;9.90;99.90;;;;;;4982457;28;20038;-79
2024/01/26 07:36:37;;;;;;;0.65;0.65;;;9.90;99.90;;;;;;4967493;28;20046;-78
2024/01/26 07:39:05;;;;;;;3.63;1.27;;;9.90;99.90;;;;;;4966075;28;20338;-78
2024/01/26 07:41:31;;;;;;;2.40;0.85;;;9.90;99.90;;;;;;4953354;28;20026;-78
2024/01/26 07:44:00;;;;;;;2.97;1.65;;;9.90;99.90;;;;;;4982723;28;20738;-79
2024/01/26 07:46:25;;;;;;;1.55;0.90;;;9.90;99.90;;;;;;4963999;28;20043;-78
2024/01/26 07:48:51;;;;;;;1.70;1.20;;;9.90;99.90;;;;;;4963555;28;20093;-78
2024/01/26 07:51:16;;;;;;;2.25;1.30;;;9.90;99.90;;;;;;4978560;28;20136;-78
2024/01/26 07:53:42;;;;;;;6.68;1.65;;;9.90;99.90;;;;;;4981397;28;20034;-78
2024/01/26 07:56:08;;;;;;;1.63;1.35;;;9.90;99.90;;;;;;4965798;28;20691;-78
2024/01/26 07:58:33;;;;;;;1.73;1.20;;;9.90;99.90;;;;;;4951731;28;20026;-79
2024/01/26 08:00:59;;;;;;;2.40;1.65;;;9.90;99.90;;;;;;4968049;28;20039;-79
2024/01/26 08:03:28;;;;;;;1.40;1.10;;;9.90;99.90;;;;;;4952517;28;20034;-78
2024/01/26 08:05:53;;;;;;;1.35;1.00;;;9.90;99.90;;;;;;4978840;28;20514;-78
2024/01/26 08:08:19;;;;;;;2.50;1.38;;;9.90;99.90;;;;;;4977211;28;20030;-78
2024/01/26 08:10:44;;;;;;;2.83;1.67;;;9.90;99.90;;;;;;4967509;28;20050;-78
2024/01/26 08:13:10;;;;;;;2.65;1.83;;;9.90;99.90;;;;;;4965698;28;20038;-78
2024/01/26 08:15:36;;;;;;;3.70;2.50;;;9.80;99.90;;;;;;4962220;28;20030;-79
2024/01/26 08:18:02;;;;;;;4.85;1.38;;;9.80;99.90;;;;;;4950422;28;20087;-78
2024/01/26 08:20:27;;;;;;;4.55;2.17;;;9.80;99.90;;;;;;4975685;28;20050;-78
2024/01/26 08:22:53;;;;;;;2.83;2.13;;;9.70;99.90;;;;;;4964600;28;20710;-79
2024/01/26 08:25:18;;;;;;;1.65;1.02;;;9.80;99.90;;;;;;4968985;28;20022;-79
2024/01/26 08:27:44;;;;;;;2.28;1.70;;;9.80;99.90;;;;;;4947966;28;20089;-79
2024/01/26 08:30:10;;;;;;;3.03;1.88;;;9.80;99.90;;;;;;4951629;28;20483;-79
2024/01/26 08:32:35;;;;;;;4.40;3.13;;;9.80;99.90;;;;;;4951675;28;20038;-79
2024/01/26 08:35:01;;;;;;;3.97;1.75;;;9.80;99.90;;;;;;4951086;28;20092;-78
2024/01/26 08:37:26;;;;;;;3.40;2.58;;;9.80;99.90;;;;;;4977510;28;20058;-79
2024/01/26 08:39:54;;;;;;;2.97;2.28;;;9.90;99.90;;;;;;4951016;28;20511;-79
2024/01/26 08:42:19;;;;;;;2.95;2.40;;;9.90;99.90;;;;;;4965509;28;20069;-79
2024/01/26 08:44:45;;;;;;;3.08;2.63;;;9.80;99.90;;;;;;4946990;28;20051;-78
2024/01/26 08:47:11;;;;;;;3.22;2.58;;;9.90;99.90;;;;;;4948494;28;20054;-79
2024/01/26 08:49:36;;;;;;;3.53;2.63;;;9.90;99.90;;;;;;4951762;28;20532;-79
2024/01/26 08:52:02;;;;;;;2.92;1.95;;;9.90;99.90;;;;;;4949687;28;20471;-79
2024/01/26 08:54:28;;;;;;;3.47;2.92;;;9.90;99.90;;;;;;4947580;28;20724;-79
2024/01/26 08:56:53;;;;;;;3.92;2.72;;;9.90;99.90;;;;;;4950382;28;20100;-79
2024/01/26 08:59:19;;;;;;;5.50;4.20;;;9.90;99.90;;;;;;4938678;28;20505;-78
2024/01/26 09:01:45;;;;;;;3.30;2.25;;;10.00;99.90;;;;;;4965187;28;20185;-79
2024/01/26 09:04:11;;;;;;;3.67;2.92;;;10.00;99.90;;;;;;4947182;28;20094;-78
2024/01/26 09:06:37;;;;;;;6.07;3.95;;;10.00;99.90;;;;;;4946302;28;20034;-79
2024/01/26 09:09:03;;;;;;;4.30;2.50;;;10.00;99.90;;;;;;4954648;28;20151;-79
2024/01/26 09:11:28;;;;;;;5.32;3.65;;;10.00;99.90;;;;;;4969051;28;20060;-79
2024/01/26 09:13:55;;;;;;;3.92;2.53;;;10.00;99.90;;;;;;4950769;28;20039;-79
2024/01/26 09:16:21;;;;;;;4.43;3.08;;;10.10;99.90;;;;;;4977719;28;20065;-79
2024/01/26 09:18:46;;;;;;;5.13;3.80;;;10.10;99.90;;;;;;4972200;28;20126;-79
2024/01/26 09:21:12;;;;;;;3.60;2.90;;;10.10;99.90;;;;;;4956129;28;20100;-79
2024/01/26 09:23:38;;;;;;;4.25;2.35;;;10.20;99.90;;;;;;4970113;28;20031;-79
2024/01/26 09:26:03;;;;;;;7.25;3.13;;;10.20;99.90;;;;;;4968840;28;20360;-80
2024/01/26 09:28:29;;;;;;;6.00;3.08;;;10.10;99.90;;;;;;4969092;28;20426;-79
2024/01/26 09:30:55;;;;;;;2.50;1.85;;;10.10;99.90;;;;;;4964911;28;20046;-80
2024/01/26 09:33:20;;;;;;;6.05;3.05;;;10.20;99.90;;;;;;4968204;28;20037;-80
2024/01/26 09:35:47;;;;;;;3.70;3.28;;;10.20;99.90;;;;;;4954094;28;20030;-80
2024/01/26 09:38:12;;;;;;;2.85;2.08;;;10.30;99.90;;;;;;4954124;28;20034;-81
2024/01/26 09:40:39;;;;;;;2.70;2.13;;;10.30;99.90;;;;;;4954465;28;20081;-80
2024/01/26 09:43:06;;;;;;;1.52;1.40;;;10.30;99.90;;;;;;4967396;28;20139;-80
2024/01/26 09:45:31;;;;;;;3.53;1.65;;;10.40;99.90;;;;;;4954495;28;20026;-80
2024/01/26 09:47:57;;;;;;;2.42;2.08;;;10.40;99.90;;;;;;4967893;28;20117;-80
2024/01/26 09:50:22;;;;;;;2.72;2.17;;;10.40;99.90;;;;;;4956377;28;20064;-80
2024/01/26 09:52:49;;;;;;;3.55;1.75;;;10.30;99.90;;;;;;4969953;28;20040;-80
2024/01/26 09:55:15;;;;;;;3.78;1.92;;;10.50;99.90;;;;;;4954868;28;20462;-80
2024/01/26 09:57:43;;;;;;;3.72;2.17;;;10.50;99.90;;;;;;4982811;28;20085;-80
2024/01/26 10:00:10;;;;;;;4.30;2.47;;;10.50;99.90;;;;;;4968370;28;20494;-80
2024/01/26 10:02:35;;;;;;;2.42;1.85;;;10.50;99.90;;;;;;4953637;28;20630;-80
2024/01/26 10:05:01;;;;;;;3.22;1.73;;;10.50;99.90;;;;;;4952852;28;20035;-80
2024/01/26 10:07:27;;;;;;;2.00;1.52;;;10.50;99.90;;;;;;4967419;28;20034;-80
2024/01/26 10:09:52;;;;;;;1.67;1.58;;;10.60;99.90;;;;;;4968942;28;20121;-80
2024/01/26 10:12:18;;;;;;;5.45;3.17;;;10.60;99.90;;;;;;4968095;28;20133;-80
2024/01/26 10:14:43;;;;;;;3.83;3.17;;;10.60;99.90;;;;;;4968749;28;20038;-80
2024/01/26 10:17:15;;;;;;;3.15;2.15;;;10.60;99.90;;;;;;4953145;28;20465;-79
2024/01/26 10:19:41;;;;;;;3.17;2.72;;;10.60;99.90;;;;;;4968632;28;21220;-79
2024/01/26 10:22:07;;;;;;;3.95;1.85;;;10.60;99.90;;;;;;4968634;28;20038;-78
2024/01/26 10:24:33;;;;;;;1.75;1.65;;;10.60;99.90;;;;;;4981297;28;20046;-79
2024/01/26 10:26:59;;;;;;;2.88;1.92;;;10.60;99.90;;;;;;4967632;28;20512;-79
2024/01/26 10:29:24;;;;;;;2.47;2.08;;;10.60;99.90;;;;;;4984232;28;20125;-79
2024/01/26 10:31:52;;;;;;;3.28;2.03;;;10.60;99.90;;;;;;4969403;28;20482;-78
2024/01/26 10:34:18;;;;;;;3.65;2.60;;;10.60;99.90;;;;;;4983617;28;20034;-79
2024/01/26 10:36:47;;;;;;;2.65;1.98;;;10.60;99.90;;;;;;4982019;28;20154;-78
2024/01/26 10:39:23;;;;;;;3.10;1.88;;;10.60;99.90;;;;;;4969475;28;20040;-78
2024/01/26 10:41:52;;;;;;;3.42;1.70;;;10.60;99.90;;;;;;4948775;28;20046;-79
2024/01/26 10:44:18;;;;;;;2.05;1.27;;;10.70;99.90;;;;;;4971985;28;20561;-79
2024/01/26 10:46:45;;;;;;;5.25;2.13;;;10.60;99.90;;;;;;4952923;28;20503;-80
2024/01/26 10:49:11;;;;;;;3.25;2.45;;;10.70;99.90;;;;;;4967290;28;20117;-78
2024/01/26 10:51:38;;;;;;;2.83;2.55;;;10.60;99.90;;;;;;4952490;28;20034;-79
2024/01/26 10:54:10;;;;;;;4.22;2.70;;;10.70;99.90;;;;;;4966935;28;20038;-80
2024/01/26 10:56:37;;;;;;;7.30;3.65;;;10.60;99.90;;;;;;4962501;28;20463;-80
2024/01/26 10:59:02;;;;;;;5.40;2.78;;;10.60;99.90;;;;;;4951776;28;20434;-79
2024/01/26 11:01:28;;;;;;;8.90;2.97;;;10.60;99.90;;;;;;4952932;28;20061;-80
2024/01/26 11:03:57;;;;;;;4.13;2.47;;;10.60;99.90;;;;;;4966658;28;20042;-80
2024/01/26 11:06:22;;;;;;;2.15;1.48;;;10.60;99.90;;;;;;4960465;28;20031;-80
2024/01/26 11:08:48;;;;;;;4.90;1.13;;;10.50;99.90;;;;;;4951245;28;20536;-80
2024/01/26 11:11:20;;;;;;;5.07;1.40;;;10.30;99.90;;;;;;4951344;28;20068;-80
2024/01/26 11:13:52;;;;;;;4.20;1.70;;;10.20;99.90;;;;;;4954127;28;20045;-79
2024/01/26 11:16:18;;;;;;;5.70;1.20;;;10.20;99.90;;;;;;4968687;28;20041;-80
2024/01/26 11:18:43;;;;;;;9.65;0.90;;;10.20;99.90;;;;;;4969243;28;20908;-80
2024/01/26 11:21:18;;;;;;;3.30;1.30;;;10.10;99.90;;;;;;4958618;28;20039;-80
2024/01/26 11:23:46;;;;;;;2.63;0.90;;;10.10;99.90;;;;;;4966218;28;20075;-80
2024/01/26 11:26:16;;;;;;;1.70;0.77;;;10.00;99.90;;;;;;4950480;28;20077;-80
2024/01/26 11:28:42;;;;;;;2.83;0.70;;;10.00;99.90;;;;;;4962181;28;20038;-80
2024/01/26 11:31:08;;;;;;;4.03;1.00;;;10.00;99.90;;;;;;4962357;28;20502;-80
2024/01/26 11:33:35;;;;;;;9.82;1.90;;;10.00;99.90;;;;;;4976199;28;20578;-80
2024/01/26 11:36:04;;;;;;;7.65;1.40;;;9.90;99.90;;;;;;4950418;28;20045;-79
2024/01/26 11:38:30;;;;;;;11.82;1.65;;;9.90;99.90;;;;;;4953119;28;20053;-79
2024/01/26 11:40:57;;;;;;;2.67;1.33;;;9.90;99.90;;;;;;4951977;28;20421;-80
2024/01/26 11:43:26;;;;;;;2.78;0.95;;;9.90;99.90;;;;;;4951990;28;20038;-80
2024/01/26 11:45:51;;;;;;;7.72;1.38;;;9.90;99.90;;;;;;4952267;28;20045;-79
2024/01/26 11:48:18;;;;;;;10.43;1.55;;;10.00;99.90;;;;;;4951237;28;20042;-80
2024/01/26 11:50:44;;;;;;;6.28;1.38;;;10.00;99.90;;;;;;4951796;28;20719;-80
2024/01/26 11:53:11;;;;;;;10.30;1.90;;;9.90;99.90;;;;;;4982013;28;20684;-80
2024/01/26 11:55:38;;;;;;;6.95;1.00;;;9.80;99.90;;;;;;4967583;28;20038;-80
2024/01/26 11:58:04;;;;;;;5.57;1.33;;;9.70;99.90;;;;;;4947852;28;20030;-79
2024/01/26 12:00:30;;;;;;;8.65;1.13;;;9.60;99.90;;;;;;4965860;28;20175;-80
2024/01/26 12:02:58;;;;;;;7.05;1.48;;;9.50;99.90;;;;;;4968233;28;20030;-80
2024/01/26 12:05:23;;;;;;;5.13;0.90;;;9.50;99.90;;;;;;4980713;28;20506;-80
2024/01/26 12:07:49;;;;;;;7.43;1.35;;;9.30;99.90;;;;;;4961529;28;20670;-80
2024/01/26 12:10:17;;;;;;;8.57;1.23;;;9.40;99.90;;;;;;4967035;28;20109;-79
2024/01/26 12:12:42;;;;;;;5.47;0.95;;;9.30;99.90;;;;;;4964584;28;21581;-79
2024/01/26 12:15:09;;;;;;;5.40;0.98;;;9.20;99.90;;;;;;4964983;28;20088;-80
2024/01/26 12:17:34;;;;;;;3.45;0.93;;;9.10;99.90;;;;;;4951991;28;20512;-80
2024/01/26 12:20:08;;;;;;;4.80;1.13;;;9.00;99.90;;;;;;4979050;28;20023;-80
2024/01/26 12:22:34;;;;;;;4.35;0.75;;;8.80;99.90;;;;;;4949191;28;20117;-80
2024/01/26 12:25:04;;;;;;;6.03;1.15;;;8.80;99.90;;;;;;4965063;28;20553;-80
2024/01/26 12:27:30;;;;;;;4.95;0.88;;;8.90;99.90;;;;;;4963465;28;20026;-79
2024/01/26 12:29:55;;;;;;;2.38;0.60;;;8.80;99.90;;;;;;4961114;28;20037;-79
2024/01/26 12:32:22;;;;;;;5.22;0.93;;;8.90;99.90;;;;;;4979881;28;20062;-80
2024/01/26 12:34:48;;;;;;;9.82;2.22;;;8.80;99.90;;;;;;4964816;28;20510;-80
2024/01/26 12:37:14;;;;;;;6.13;1.02;;;8.90;99.90;;;;;;4962984;28;20042;-80
2024/01/26 12:39:39;;;;;;;4.57;0.80;;;8.80;99.90;;;;;;4966783;28;20153;-80
2024/01/26 12:42:05;;;;;;;8.80;1.77;;;8.90;99.90;;;;;;4976568;28;20030;-80
2024/01/26 12:44:32;;;;;;;8.00;0.90;;;9.10;99.90;;;;;;4963779;28;20042;-80